createdAt,value
2023-06-19T00:00:32.290Z,9.32
2023-06-19T00:01:34.625Z,9.98
2023-06-19T00:02:36.822Z,11.18
2023-06-19T00:03:39.147Z,10.48
2023-06-19T00:04:41.422Z,11.60
2023-06-19T00:05:43.567Z,10.27
2023-06-19T00:06:45.746Z,10.80
2023-06-19T00:07:47.903Z,11.00
2023-06-19T00:08:50.050Z,10.82
2023-06-19T00:09:52.271Z,10.52
2023-06-19T00:10:55.201Z,11.05
2023-06-19T00:11:57.396Z,11.07
2023-06-19T00:12:59.569Z,10.25
2023-06-19T00:14:02.191Z,10.10
2023-06-19T00:15:04.610Z,9.65
2023-06-19T00:16:06.800Z,10.88
2023-06-19T00:17:09.004Z,11.68
2023-06-19T00:18:11.844Z,10.48
2023-06-19T00:19:14.121Z,10.70
2023-06-19T00:20:16.476Z,11.10
2023-06-19T00:21:18.778Z,11.65
2023-06-19T00:22:21.063Z,9.60
2023-06-19T00:23:24.198Z,11.10
2023-06-19T00:24:26.391Z,10.63
2023-06-19T00:25:28.624Z,11.15
2023-06-19T00:26:30.737Z,10.10
2023-06-19T00:27:32.891Z,10.60
2023-06-19T00:28:35.055Z,9.70
2023-06-19T00:29:37.203Z,11.20
2023-06-19T00:30:39.403Z,10.48
2023-06-19T00:31:42.077Z,11.00
2023-06-19T00:32:51.123Z,10.77
2023-06-19T00:33:53.399Z,10.90
2023-06-19T00:34:55.851Z,11.43
2023-06-19T00:35:58.106Z,11.80
2023-06-19T00:37:00.320Z,11.27
2023-06-19T00:38:02.825Z,10.35
2023-06-19T00:39:05.015Z,10.68
2023-06-19T00:40:09.364Z,11.23
2023-06-19T00:41:11.742Z,10.32
2023-06-19T00:42:13.890Z,11.27
2023-06-19T00:43:16.055Z,10.75
2023-06-19T00:44:18.190Z,11.20
2023-06-19T00:45:20.456Z,11.40
2023-06-19T00:46:22.907Z,10.70
2023-06-19T00:47:26.818Z,10.88
2023-06-19T00:48:29.922Z,10.98
2023-06-19T00:49:32.529Z,11.35
2023-06-19T00:50:34.732Z,11.02
2023-06-19T00:51:36.926Z,11.30
2023-06-19T00:52:39.118Z,12.68
2023-06-19T00:53:41.367Z,11.90
2023-06-19T00:54:43.560Z,11.48
2023-06-19T00:55:45.906Z,10.80
2023-06-19T00:56:48.656Z,11.40
2023-06-19T00:57:51.144Z,10.75
2023-06-19T00:58:54.377Z,11.82
2023-06-19T00:59:56.640Z,12.10
2023-06-19T01:01:07.961Z,11.27
2023-06-19T01:02:12.293Z,11.50
2023-06-19T01:03:17.808Z,11.30
2023-06-19T01:04:21.245Z,11.10
2023-06-19T01:05:23.551Z,10.95
2023-06-19T01:06:29.326Z,10.82
2023-06-19T01:07:43.389Z,11.77
2023-06-19T01:08:57.407Z,10.95
2023-06-19T01:10:05.464Z,12.07
2023-06-19T01:11:18.301Z,11.48
2023-06-19T01:12:40.159Z,11.25
2023-06-19T01:14:01.299Z,12.45
2023-06-19T01:15:06.335Z,10.13
2023-06-19T01:16:08.652Z,11.93
2023-06-19T01:17:11.130Z,11.30
2023-06-19T01:18:13.569Z,12.15
2023-06-19T01:19:27.069Z,11.75
2023-06-19T01:20:29.912Z,11.73
2023-06-19T01:21:32.065Z,11.38
2023-06-19T01:22:34.213Z,10.15
2023-06-19T01:23:36.365Z,11.50
2023-06-19T01:24:38.553Z,10.88
2023-06-19T01:25:40.778Z,10.93
2023-06-19T01:26:43.163Z,11.15
2023-06-19T01:27:45.659Z,10.75
2023-06-19T01:28:48.062Z,11.48
2023-06-19T01:29:50.805Z,11.25
2023-06-19T01:30:53.253Z,10.95
2023-06-19T01:32:06.426Z,11.23
2023-06-19T01:33:17.913Z,11.50
2023-06-19T01:34:21.328Z,11.43
2023-06-19T01:35:27.832Z,12.18
2023-06-19T01:36:30.217Z,11.18
2023-06-19T01:37:34.471Z,11.20
2023-06-19T01:38:37.113Z,11.57
2023-06-19T01:39:40.488Z,11.32
2023-06-19T01:40:43.155Z,12.85
2023-06-19T01:41:45.672Z,10.43
2023-06-19T01:42:48.199Z,11.40
2023-06-19T01:43:50.493Z,11.82
2023-06-19T01:44:52.822Z,10.77
2023-06-19T01:45:55.117Z,11.18
2023-06-19T01:46:57.470Z,11.10
2023-06-19T01:47:59.856Z,10.77
2023-06-19T01:49:02.073Z,11.73
2023-06-19T01:50:04.342Z,11.23
2023-06-19T01:51:06.642Z,12.13
2023-06-19T01:52:09.745Z,11.15
2023-06-19T01:53:11.959Z,11.15
2023-06-19T01:54:14.123Z,11.55
2023-06-19T01:55:16.383Z,10.50
2023-06-19T01:56:18.588Z,12.85
2023-06-19T01:57:20.888Z,11.90
2023-06-19T01:58:23.064Z,11.60
2023-06-19T01:59:25.234Z,10.73
2023-06-19T02:00:27.383Z,10.68
2023-06-19T02:01:29.914Z,11.05
2023-06-19T02:02:32.160Z,11.27
2023-06-19T02:03:34.502Z,11.68
2023-06-19T02:04:36.717Z,11.57
2023-06-19T02:05:40.918Z,11.43
2023-06-19T02:06:43.326Z,11.52
2023-06-19T02:07:45.555Z,11.77
2023-06-19T02:08:49.351Z,10.82
2023-06-19T02:09:51.524Z,11.05
2023-06-19T02:10:53.687Z,11.25
2023-06-19T02:11:55.836Z,10.57
2023-06-19T02:12:57.988Z,10.48
2023-06-19T02:14:00.201Z,11.32
2023-06-19T02:15:02.369Z,11.65
2023-06-19T02:16:05.113Z,12.27
2023-06-19T02:17:07.557Z,11.73
2023-06-19T02:18:09.700Z,11.15
2023-06-19T02:19:12.390Z,11.45
2023-06-19T02:20:14.572Z,11.73
2023-06-19T02:21:17.084Z,11.93
2023-06-19T02:22:19.460Z,11.75
2023-06-19T02:23:21.718Z,10.50
2023-06-19T02:24:23.955Z,11.48
2023-06-19T02:25:26.163Z,12.23
2023-06-19T02:26:30.353Z,11.75
2023-06-19T02:27:50.838Z,11.05
2023-06-19T02:28:52.978Z,11.93
2023-06-19T02:29:55.116Z,12.65
2023-06-19T02:30:57.276Z,12.20
2023-06-19T02:31:59.391Z,12.48
2023-06-19T02:33:01.578Z,13.30
2023-06-19T02:34:04.979Z,12.02
2023-06-19T02:35:10.201Z,11.88
2023-06-19T02:36:12.458Z,12.75
2023-06-19T02:37:14.638Z,11.70
2023-06-19T02:38:16.902Z,12.65
2023-06-19T02:39:19.374Z,12.07
2023-06-19T02:40:21.769Z,12.27
2023-06-19T02:41:24.255Z,12.77
2023-06-19T02:42:26.448Z,11.35
2023-06-19T02:43:28.604Z,12.45
2023-06-19T02:44:30.711Z,10.93
2023-06-19T02:45:32.858Z,11.90
2023-06-19T02:46:35.100Z,12.15
2023-06-19T02:47:37.397Z,12.43
2023-06-19T02:48:39.565Z,13.45
2023-06-19T02:49:41.769Z,12.15
2023-06-19T02:50:43.921Z,12.35
2023-06-19T02:51:46.100Z,12.07
2023-06-19T02:52:48.561Z,12.38
2023-06-19T02:53:50.800Z,11.85
2023-06-19T02:54:53.011Z,12.20
2023-06-19T02:55:55.176Z,12.57
2023-06-19T02:56:57.336Z,13.23
2023-06-19T02:57:59.544Z,12.73
2023-06-19T02:59:01.676Z,12.85
2023-06-19T03:00:07.170Z,11.35
2023-06-19T03:01:09.977Z,12.40
2023-06-19T03:02:12.644Z,12.98
2023-06-19T03:03:14.922Z,12.77
2023-06-19T03:04:17.161Z,12.52
2023-06-19T03:05:19.304Z,12.57
2023-06-19T03:06:21.430Z,12.57
2023-06-19T03:07:23.586Z,12.63
2023-06-19T03:08:25.796Z,12.95
2023-06-19T03:09:28.029Z,12.68
2023-06-19T03:10:30.295Z,12.88
2023-06-19T03:11:32.430Z,12.60
2023-06-19T03:12:34.599Z,11.90
2023-06-19T03:13:50.852Z,12.25
2023-06-19T03:14:53.038Z,13.98
2023-06-19T03:15:55.266Z,12.38
2023-06-19T03:16:57.414Z,12.65
2023-06-19T03:17:59.752Z,14.00
2023-06-19T03:19:02.152Z,12.48
2023-06-19T03:20:06.966Z,11.00
2023-06-19T03:21:09.252Z,12.50
2023-06-19T03:22:11.385Z,11.52
2023-06-19T03:23:13.570Z,11.75
2023-06-19T03:24:15.782Z,12.35
2023-06-19T03:25:21.102Z,11.95
2023-06-19T03:26:23.552Z,12.55
2023-06-19T03:27:27.619Z,13.20
2023-06-19T03:28:29.960Z,11.82
2023-06-19T03:29:32.093Z,13.27
2023-06-19T03:30:34.268Z,13.25
2023-06-19T03:31:36.468Z,12.25
2023-06-19T03:32:38.941Z,12.73
2023-06-19T03:33:41.136Z,12.38
2023-06-19T03:34:43.459Z,12.95
2023-06-19T03:35:45.666Z,13.07
2023-06-19T03:36:47.837Z,10.82
2023-06-19T03:37:49.944Z,12.65
2023-06-19T03:38:54.902Z,13.05
2023-06-19T03:39:57.115Z,12.18
2023-06-19T03:40:59.275Z,12.73
2023-06-19T03:42:01.569Z,12.85
2023-06-19T03:43:03.837Z,13.15
2023-06-19T03:44:06.164Z,13.35
2023-06-19T03:45:08.696Z,12.93
2023-06-19T03:46:10.859Z,12.75
2023-06-19T03:47:13.010Z,12.50
2023-06-19T03:48:17.799Z,12.45
2023-06-19T03:49:20.132Z,12.05
2023-06-19T03:50:23.486Z,11.68
2023-06-19T03:51:30.205Z,11.70
2023-06-19T03:53:34.548Z,11.27
2023-06-19T03:54:36.720Z,12.70
2023-06-19T03:55:38.933Z,12.25
2023-06-19T03:56:41.205Z,13.00
2023-06-19T03:57:43.347Z,11.25
2023-06-19T03:58:45.537Z,13.40
2023-06-19T03:59:48.350Z,11.70
2023-06-19T04:00:50.542Z,12.50
2023-06-19T04:01:52.709Z,12.68
2023-06-19T04:02:55.075Z,12.43
2023-06-19T04:03:57.371Z,12.43
2023-06-19T04:04:59.596Z,11.77
2023-06-19T04:06:01.752Z,12.48
2023-06-19T04:07:04.035Z,12.57
2023-06-19T04:08:06.205Z,12.63
2023-06-19T04:09:08.406Z,12.48
2023-06-19T04:10:12.576Z,12.98
2023-06-19T04:11:15.124Z,12.88
2023-06-19T04:12:17.325Z,11.93
2023-06-19T04:13:19.460Z,12.93
2023-06-19T04:14:24.128Z,12.25
2023-06-19T04:15:26.340Z,12.07
2023-06-19T04:16:28.587Z,12.30
2023-06-19T04:17:30.827Z,12.48
2023-06-19T04:18:32.987Z,12.40
2023-06-19T04:19:35.117Z,11.57
2023-06-19T04:20:37.338Z,12.27
2023-06-19T04:21:39.456Z,12.93
2023-06-19T04:22:42.369Z,12.52
2023-06-19T04:23:44.476Z,12.15
2023-06-19T04:24:46.642Z,12.68
2023-06-19T04:25:48.938Z,13.00
2023-06-19T04:26:51.087Z,12.48
2023-06-19T04:27:53.228Z,12.10
2023-06-19T04:28:55.474Z,11.93
2023-06-19T04:29:57.617Z,12.23
2023-06-19T04:31:02.329Z,11.48
2023-06-19T04:32:12.791Z,11.68
2023-06-19T04:33:15.135Z,11.55
2023-06-19T04:34:21.983Z,11.07
2023-06-19T04:35:24.922Z,12.43
2023-06-19T04:36:27.079Z,11.95
2023-06-19T04:37:29.251Z,10.82
2023-06-19T04:38:31.476Z,10.75
2023-06-19T04:39:33.674Z,11.15
2023-06-19T04:40:35.942Z,11.27
2023-06-19T04:41:39.686Z,11.85
2023-06-19T04:42:41.890Z,10.57
2023-06-19T04:43:44.027Z,11.15
2023-06-19T04:44:49.341Z,11.23
2023-06-19T04:45:51.525Z,11.45
2023-06-19T04:47:02.034Z,11.75
2023-06-19T04:48:04.734Z,10.85
2023-06-19T04:49:07.006Z,12.60
2023-06-19T04:50:09.408Z,10.63
2023-06-19T04:51:11.590Z,11.32
2023-06-19T04:52:13.748Z,12.13
2023-06-19T04:53:15.925Z,11.73
2023-06-19T04:54:18.079Z,10.88
2023-06-19T04:55:20.610Z,10.52
2023-06-19T04:56:22.828Z,11.77
2023-06-19T04:57:25.145Z,10.85
2023-06-19T04:58:27.435Z,11.13
2023-06-19T04:59:31.370Z,11.55
2023-06-19T05:00:33.523Z,10.57
2023-06-19T05:01:36.634Z,11.40
2023-06-19T05:02:38.858Z,11.85
2023-06-19T05:03:41.539Z,11.95
2023-06-19T05:04:44.734Z,10.88
2023-06-19T05:05:46.961Z,12.07
2023-06-19T05:06:52.024Z,10.60
2023-06-19T05:07:54.174Z,11.73
2023-06-19T05:08:56.368Z,10.60
2023-06-19T05:09:59.029Z,10.50
2023-06-19T05:11:01.378Z,11.25
2023-06-19T05:12:03.760Z,11.52
2023-06-19T05:13:05.928Z,10.07
2023-06-19T05:14:08.174Z,10.60
2023-06-19T05:15:10.785Z,9.50
2023-06-19T05:16:17.336Z,10.43
2023-06-19T05:17:19.770Z,11.07
2023-06-19T05:18:22.020Z,10.85
2023-06-19T05:19:24.251Z,10.70
2023-06-19T05:20:26.618Z,10.90
2023-06-19T05:21:28.985Z,10.43
2023-06-19T05:22:32.702Z,11.13
2023-06-19T05:23:34.985Z,10.27
2023-06-19T05:24:37.193Z,10.50
2023-06-19T05:25:39.488Z,11.38
2023-06-19T05:26:41.692Z,11.48
2023-06-19T05:27:43.895Z,10.70
2023-06-19T05:28:46.041Z,11.55
2023-06-19T05:29:48.156Z,10.65
2023-06-19T05:30:51.309Z,9.85
2023-06-19T05:31:53.493Z,11.10
2023-06-19T05:32:55.688Z,11.35
2023-06-19T05:33:59.738Z,10.57
2023-06-19T05:35:02.436Z,12.18
2023-06-19T05:36:04.846Z,11.27
2023-06-19T05:37:07.008Z,11.07
2023-06-19T05:38:09.218Z,11.18
2023-06-19T05:39:11.517Z,9.93
2023-06-19T05:40:13.875Z,11.65
2023-06-19T05:41:17.288Z,10.57
2023-06-19T05:42:19.542Z,10.65
2023-06-19T05:43:21.758Z,11.32
2023-06-19T05:44:23.907Z,10.57
2023-06-19T05:45:26.051Z,11.82
2023-06-19T05:46:28.423Z,12.07
2023-06-19T05:47:31.678Z,11.95
2023-06-19T05:48:33.868Z,10.90
2023-06-19T05:49:36.058Z,11.48
2023-06-19T05:50:38.169Z,10.73
2023-06-19T05:51:40.510Z,12.35
2023-06-19T05:52:44.387Z,11.32
2023-06-19T05:53:47.705Z,11.40
2023-06-19T05:54:49.853Z,11.80
2023-06-19T05:55:52.082Z,11.27
2023-06-19T05:56:54.464Z,11.60
2023-06-19T05:57:57.192Z,11.30
2023-06-19T05:58:59.394Z,10.95
2023-06-19T06:00:01.689Z,11.77
2023-06-19T06:01:04.243Z,11.95
2023-06-19T06:02:07.330Z,12.07
2023-06-19T06:03:09.486Z,12.07
2023-06-19T06:04:11.746Z,11.50
2023-06-19T06:05:14.022Z,12.07
2023-06-19T06:06:16.208Z,10.77
2023-06-19T06:07:18.376Z,11.57
2023-06-19T06:08:20.680Z,10.98
2023-06-19T06:09:22.991Z,11.02
2023-06-19T06:10:26.563Z,11.63
2023-06-19T06:11:28.994Z,11.48
2023-06-19T06:12:31.124Z,11.65
2023-06-19T06:13:33.277Z,10.70
2023-06-19T06:14:36.161Z,11.82
2023-06-19T06:15:38.311Z,10.82
2023-06-19T06:16:40.631Z,11.35
2023-06-19T06:17:43.111Z,10.93
2023-06-19T06:18:46.332Z,11.35
2023-06-19T06:19:48.565Z,11.32
2023-06-19T06:20:50.885Z,10.90
2023-06-19T06:21:53.108Z,11.23
2023-06-19T06:22:55.445Z,11.45
2023-06-19T06:23:57.621Z,10.95
2023-06-19T06:24:59.839Z,11.45
2023-06-19T06:26:04.875Z,11.57
2023-06-19T06:27:07.438Z,12.00
2023-06-19T06:28:09.639Z,12.02
2023-06-19T06:29:11.991Z,10.73
2023-06-19T06:30:14.373Z,10.52
2023-06-19T06:31:16.641Z,11.13
2023-06-19T06:32:19.417Z,10.55
2023-06-19T06:33:21.624Z,11.32
2023-06-19T06:34:23.916Z,10.55
2023-06-19T06:35:26.051Z,10.38
2023-06-19T06:36:36.290Z,11.10
2023-06-19T06:37:39.426Z,10.70
2023-06-19T06:38:41.563Z,11.20
2023-06-19T06:39:43.742Z,11.05
2023-06-19T06:40:46.059Z,11.20
2023-06-19T06:41:48.201Z,10.25
2023-06-19T06:42:50.572Z,11.25
2023-06-19T06:43:53.423Z,11.35
2023-06-19T06:44:55.562Z,10.60
2023-06-19T06:45:57.849Z,11.98
2023-06-19T06:47:00.162Z,10.25
2023-06-19T06:48:02.446Z,10.05
2023-06-19T06:49:04.696Z,10.18
2023-06-19T06:50:08.320Z,10.75
2023-06-19T06:51:11.725Z,11.35
2023-06-19T06:52:14.409Z,11.10
2023-06-19T06:53:16.604Z,10.45
2023-06-19T06:54:18.767Z,10.80
2023-06-19T06:55:20.988Z,10.82
2023-06-19T06:56:23.124Z,10.20
2023-06-19T06:57:25.309Z,10.27
2023-06-19T06:58:28.463Z,10.65
2023-06-19T06:59:30.684Z,9.88
2023-06-19T07:00:32.894Z,9.95
2023-06-19T07:01:35.183Z,9.70
2023-06-19T07:02:39.014Z,10.00
2023-06-19T07:03:41.276Z,9.40
2023-06-19T07:04:43.456Z,9.23
2023-06-19T07:05:45.764Z,9.57
2023-06-19T07:06:48.106Z,9.48
2023-06-19T07:07:50.235Z,10.88
2023-06-19T07:08:52.442Z,9.80
2023-06-19T07:09:54.715Z,9.60
2023-06-19T07:10:56.859Z,9.55
2023-06-19T07:11:59.065Z,9.82
2023-06-19T07:13:01.299Z,10.02
2023-06-19T07:14:03.872Z,10.40
2023-06-19T07:15:06.412Z,10.40
2023-06-19T07:16:09.133Z,9.63
2023-06-19T07:17:11.376Z,8.93
2023-06-19T07:18:13.843Z,10.40
2023-06-19T07:19:16.120Z,10.75
2023-06-19T07:20:18.323Z,12.25
2023-06-19T07:21:20.543Z,10.50
2023-06-19T07:22:22.713Z,10.75
2023-06-19T07:23:24.946Z,10.23
2023-06-19T07:24:27.178Z,9.98
2023-06-19T07:25:29.500Z,10.77
2023-06-19T07:26:32.057Z,10.52
2023-06-19T07:27:34.305Z,10.27
2023-06-19T07:28:37.503Z,10.27
2023-06-19T07:29:39.681Z,9.90
2023-06-19T07:30:42.336Z,10.25
2023-06-19T07:31:44.580Z,9.10
2023-06-19T07:32:46.818Z,9.02
2023-06-19T07:33:49.075Z,10.15
2023-06-19T07:34:51.248Z,10.77
2023-06-19T07:35:53.387Z,10.02
2023-06-19T07:36:55.528Z,9.98
2023-06-19T07:37:57.695Z,10.70
2023-06-19T07:38:59.871Z,11.45
2023-06-19T07:40:02.036Z,10.38
2023-06-19T07:41:04.160Z,9.98
2023-06-19T07:42:06.444Z,10.23
2023-06-19T07:43:08.748Z,10.02
2023-06-19T07:44:10.903Z,10.82
2023-06-19T07:45:13.907Z,9.55
2023-06-19T07:46:16.713Z,8.80
2023-06-19T07:47:19.857Z,9.40
2023-06-19T07:48:24.646Z,8.70
2023-06-19T07:49:26.832Z,8.23
2023-06-19T07:50:29.333Z,10.10
2023-06-19T07:51:32.153Z,9.50
2023-06-19T07:52:35.220Z,8.95
2023-06-19T07:53:37.381Z,8.85
2023-06-19T07:54:58.277Z,8.50
2023-06-19T07:56:00.565Z,8.68
2023-06-19T07:57:03.006Z,8.88
2023-06-19T07:58:05.135Z,9.07
2023-06-19T07:59:07.268Z,8.95
2023-06-19T08:00:12.740Z,8.75
2023-06-19T08:01:15.019Z,8.75
2023-06-19T08:02:17.800Z,9.15
2023-06-19T08:03:20.154Z,9.00
2023-06-19T08:04:22.504Z,8.57
2023-06-19T08:05:24.860Z,8.52
2023-06-19T08:06:27.070Z,8.48
2023-06-19T08:07:29.237Z,8.90
2023-06-19T08:08:31.417Z,8.98
2023-06-19T08:09:34.184Z,8.43
2023-06-19T08:10:36.324Z,8.23
2023-06-19T08:11:38.516Z,7.53
2023-06-19T08:12:43.269Z,8.48
2023-06-19T08:13:45.395Z,7.88
2023-06-19T08:14:47.583Z,8.43
2023-06-19T08:15:49.798Z,8.02
2023-06-19T08:16:52.011Z,8.02
2023-06-19T08:17:54.213Z,8.57
2023-06-19T08:18:56.425Z,7.70
2023-06-19T08:19:58.594Z,8.60
2023-06-19T08:21:00.794Z,8.45
2023-06-19T08:22:03.778Z,7.82
2023-06-19T08:23:06.900Z,8.65
2023-06-19T08:24:09.176Z,7.88
2023-06-19T08:25:11.588Z,7.97
2023-06-19T08:26:13.732Z,7.63
2023-06-19T08:27:16.442Z,7.55
2023-06-19T08:28:18.620Z,8.05
2023-06-19T08:29:20.865Z,7.53
2023-06-19T08:30:23.388Z,7.45
2023-06-19T08:31:28.593Z,7.55
2023-06-19T08:32:30.858Z,8.68
2023-06-19T08:33:35.818Z,8.05
2023-06-19T08:34:39.229Z,8.13
2023-06-19T08:35:41.486Z,8.05
2023-06-19T08:36:43.673Z,8.45
2023-06-19T08:37:45.821Z,7.57
2023-06-19T08:38:50.445Z,7.95
2023-06-19T08:39:52.608Z,8.13
2023-06-19T08:40:56.460Z,7.43
2023-06-19T08:41:58.700Z,7.32
2023-06-19T08:43:00.819Z,8.27
2023-06-19T08:44:04.386Z,7.55
2023-06-19T08:45:08.180Z,7.20
2023-06-19T08:46:16.120Z,7.57
2023-06-19T08:47:18.379Z,8.00
2023-06-19T08:48:21.912Z,7.80
2023-06-19T08:49:24.182Z,7.18
2023-06-19T08:50:27.241Z,7.40
2023-06-19T08:51:31.543Z,8.20
2023-06-19T08:52:33.736Z,8.20
2023-06-19T08:53:38.905Z,7.25
2023-06-19T08:54:44.918Z,7.65
2023-06-19T08:55:47.682Z,8.20
2023-06-19T08:56:49.966Z,7.38
2023-06-19T08:57:53.800Z,7.70
2023-06-19T08:58:55.974Z,8.13
2023-06-19T08:59:58.236Z,7.75
2023-06-19T09:01:00.608Z,8.02
2023-06-19T09:02:03.891Z,7.78
2023-06-19T09:03:13.905Z,8.30
2023-06-19T09:04:16.776Z,7.38
2023-06-19T09:05:20.185Z,9.60
2023-06-19T09:06:22.494Z,7.68
2023-06-19T09:07:24.783Z,7.13
2023-06-19T09:08:27.011Z,8.98
2023-06-19T09:09:29.313Z,8.57
2023-06-19T09:10:31.984Z,7.75
2023-06-19T09:11:34.152Z,9.60
2023-06-19T09:12:36.780Z,9.40
2023-06-19T09:13:39.187Z,7.70
2023-06-19T09:14:43.770Z,8.07
2023-06-19T09:15:46.384Z,8.07
2023-06-19T09:16:48.652Z,8.20
2023-06-19T09:18:07.223Z,7.72
2023-06-19T09:19:09.503Z,7.75
2023-06-19T09:20:12.720Z,7.80
2023-06-19T09:21:19.637Z,7.63
2023-06-19T09:22:22.884Z,7.65
2023-06-19T09:23:25.888Z,7.68
2023-06-19T09:24:35.856Z,7.75
2023-06-19T09:25:54.387Z,8.05
2023-06-19T09:27:10.288Z,7.47
2023-06-19T09:28:26.524Z,7.00
2023-06-19T09:29:28.690Z,7.60
2023-06-19T09:30:30.845Z,7.68
2023-06-19T09:31:34.899Z,7.63
2023-06-19T09:32:37.280Z,7.30
2023-06-19T09:33:40.703Z,7.22
2023-06-19T09:34:42.940Z,6.07
2023-06-19T09:35:45.488Z,5.85
2023-06-19T09:36:47.660Z,6.70
2023-06-19T09:37:50.280Z,7.10
2023-06-19T09:38:53.744Z,6.55
2023-06-19T09:40:00.438Z,6.32
2023-06-19T09:41:04.065Z,6.90
2023-06-19T09:42:10.618Z,6.90
2023-06-19T09:43:13.368Z,6.35
2023-06-19T09:44:16.260Z,6.57
2023-06-19T09:45:20.081Z,7.03
2023-06-19T09:46:23.178Z,7.05
2023-06-19T09:47:26.698Z,6.55
2023-06-19T09:48:30.873Z,6.72
2023-06-19T09:49:33.658Z,5.78
2023-06-19T09:50:38.797Z,6.38
2023-06-19T09:51:43.107Z,6.75
2023-06-19T09:53:52.003Z,6.88
2023-06-19T09:54:55.526Z,6.97
2023-06-19T09:55:57.849Z,6.80
2023-06-19T09:57:01.322Z,6.28
2023-06-19T09:58:04.185Z,6.72
2023-06-19T09:59:10.483Z,6.68
2023-06-19T10:00:14.104Z,7.00
2023-06-19T10:01:19.672Z,6.88
2023-06-19T10:02:22.978Z,6.10
2023-06-19T10:03:33.115Z,7.22
2023-06-19T10:04:50.652Z,6.22
2023-06-19T10:05:59.913Z,7.00
2023-06-19T10:07:02.225Z,6.68
2023-06-19T10:08:06.004Z,6.75
2023-06-19T10:09:11.269Z,6.28
2023-06-19T10:10:24.799Z,6.97
2023-06-19T10:11:28.555Z,5.93
2023-06-19T10:12:45.039Z,6.25
2023-06-19T10:13:47.243Z,6.63
2023-06-19T10:14:52.256Z,6.78
2023-06-19T10:15:54.689Z,7.03
2023-06-19T10:16:56.875Z,6.88
2023-06-19T10:18:04.109Z,7.38
2023-06-19T10:19:14.803Z,7.60
2023-06-19T10:20:24.610Z,7.13
2023-06-19T10:21:27.013Z,6.70
2023-06-19T10:22:32.492Z,6.90
2023-06-19T10:23:38.403Z,6.97
2023-06-19T10:24:50.620Z,6.63
2023-06-19T10:25:55.650Z,6.78
2023-06-19T10:27:02.226Z,6.30
2023-06-19T10:28:08.389Z,6.85
2023-06-19T10:29:18.165Z,6.60
2023-06-19T10:30:21.209Z,6.82
2023-06-19T10:31:24.138Z,7.45
2023-06-19T10:32:26.308Z,7.10
2023-06-19T10:33:30.393Z,6.57
2023-06-19T10:34:36.247Z,6.35
2023-06-19T10:35:42.368Z,7.07
2023-06-19T10:36:44.760Z,6.57
2023-06-19T10:37:46.940Z,6.35
2023-06-19T10:38:49.214Z,6.50
2023-06-19T10:39:51.409Z,7.20
2023-06-19T10:40:53.679Z,6.40
2023-06-19T10:41:55.829Z,7.10
2023-06-19T10:42:57.989Z,6.25
2023-06-19T10:44:01.374Z,7.07
2023-06-19T10:45:08.140Z,7.32
2023-06-19T10:46:10.431Z,7.47
2023-06-19T10:47:12.722Z,8.07
2023-06-19T10:48:23.181Z,7.07
2023-06-19T10:49:25.443Z,7.13
2023-06-19T10:50:27.661Z,6.93
2023-06-19T10:51:29.935Z,7.07
2023-06-19T10:52:32.319Z,7.32
2023-06-19T10:53:34.933Z,6.78
2023-06-19T10:54:37.114Z,6.72
2023-06-19T10:55:39.294Z,7.07
2023-06-19T10:56:41.954Z,7.63
2023-06-19T10:57:47.408Z,7.20
2023-06-19T10:58:49.712Z,7.93
2023-06-19T10:59:52.462Z,7.47
2023-06-19T11:00:54.694Z,8.30
2023-06-19T11:01:56.847Z,8.70
2023-06-19T11:02:59.799Z,7.22
2023-06-19T11:04:04.618Z,7.25
2023-06-19T11:05:07.381Z,6.68
2023-06-19T11:06:09.564Z,7.13
2023-06-19T11:07:11.698Z,6.80
2023-06-19T11:08:19.675Z,6.85
2023-06-19T11:09:22.657Z,8.88
2023-06-19T11:10:27.026Z,8.48
2023-06-19T11:11:46.493Z,7.07
2023-06-19T11:12:48.647Z,7.47
2023-06-19T11:13:50.873Z,7.22
2023-06-19T11:14:53.240Z,7.68
2023-06-19T11:15:55.398Z,7.18
2023-06-19T11:16:57.621Z,6.85
2023-06-19T11:18:01.098Z,7.30
2023-06-19T11:19:03.357Z,7.18
2023-06-19T11:20:11.321Z,7.70
2023-06-19T11:21:13.467Z,6.90
2023-06-19T11:22:15.784Z,6.95
2023-06-19T11:23:28.348Z,7.43
2023-06-19T11:24:31.128Z,6.90
2023-06-19T11:25:40.788Z,7.20
2023-06-19T11:26:50.359Z,6.95
2023-06-19T11:27:53.273Z,7.40
2023-06-19T11:28:55.806Z,7.70
2023-06-19T11:30:01.067Z,6.82
2023-06-19T11:31:04.653Z,6.85
2023-06-19T11:32:24.079Z,7.88
2023-06-19T11:33:26.332Z,6.50
2023-06-19T11:34:37.674Z,6.93
2023-06-19T11:35:40.448Z,6.88
2023-06-19T11:36:43.482Z,6.50
2023-06-19T11:37:45.654Z,7.00
2023-06-19T11:38:48.186Z,6.88
2023-06-19T11:39:52.034Z,7.15
2023-06-19T11:40:55.793Z,6.75
2023-06-19T11:42:00.415Z,7.38
2023-06-19T11:43:02.638Z,6.95
2023-06-19T11:44:06.057Z,6.75
2023-06-19T11:45:09.395Z,7.03
2023-06-19T11:46:11.641Z,7.18
2023-06-19T11:47:13.871Z,6.93
2023-06-19T11:48:23.288Z,6.85
2023-06-19T11:49:26.179Z,6.72
2023-06-19T11:50:29.145Z,7.43
2023-06-19T11:51:31.764Z,6.80
2023-06-19T11:52:33.953Z,7.28
2023-06-19T11:53:36.295Z,6.78
2023-06-19T11:54:38.452Z,6.55
2023-06-19T11:55:40.626Z,7.03
2023-06-19T11:56:42.913Z,7.40
2023-06-19T11:57:45.162Z,6.57
2023-06-19T11:58:47.397Z,6.35
2023-06-19T11:59:49.591Z,6.35
2023-06-19T12:00:51.838Z,6.90
2023-06-19T12:01:54.304Z,6.70
2023-06-19T12:02:58.497Z,6.68
2023-06-19T12:04:02.047Z,6.68
2023-06-19T12:05:04.533Z,6.07
2023-06-19T12:06:06.663Z,6.93
2023-06-19T12:07:09.082Z,6.22
2023-06-19T12:08:11.313Z,6.50
2023-06-19T12:09:13.546Z,6.55
2023-06-19T12:10:15.733Z,6.80
2023-06-19T12:11:17.928Z,6.85
2023-06-19T12:12:20.046Z,6.88
2023-06-19T12:13:22.207Z,7.03
2023-06-19T12:14:25.718Z,10.57
2023-06-19T12:15:27.947Z,8.25
2023-06-19T12:16:30.160Z,10.18
2023-06-19T12:17:32.571Z,7.63
2023-06-19T12:18:34.910Z,6.60
2023-06-19T12:19:37.154Z,6.82
2023-06-19T12:20:39.358Z,7.50
2023-06-19T12:21:43.069Z,7.13
2023-06-19T12:22:45.530Z,6.60
2023-06-19T12:23:47.671Z,7.53
2023-06-19T12:24:49.813Z,6.75
2023-06-19T12:25:51.981Z,7.50
2023-06-19T12:26:54.161Z,7.57
2023-06-19T12:27:56.329Z,7.05
2023-06-19T12:28:58.490Z,7.07
2023-06-19T12:30:00.659Z,7.57
2023-06-19T12:31:04.621Z,7.10
2023-06-19T12:32:07.469Z,6.90
2023-06-19T12:33:09.736Z,6.07
2023-06-19T12:34:28.857Z,6.82
2023-06-19T12:35:32.324Z,7.20
2023-06-19T12:36:34.555Z,7.40
2023-06-19T12:37:36.853Z,7.30
2023-06-19T12:38:39.777Z,7.13
2023-06-19T12:39:42.895Z,7.13
2023-06-19T12:40:45.209Z,7.22
2023-06-19T12:41:47.421Z,6.70
2023-06-19T12:42:51.522Z,7.45
2023-06-19T12:43:53.759Z,7.18
2023-06-19T12:44:55.899Z,6.82
2023-06-19T12:45:58.253Z,7.18
2023-06-19T12:47:01.643Z,7.53
2023-06-19T12:48:04.067Z,7.30
2023-06-19T12:49:06.526Z,6.85
2023-06-19T12:50:09.253Z,6.88
2023-06-19T12:51:11.517Z,6.25
2023-06-19T12:52:13.646Z,7.53
2023-06-19T12:53:15.804Z,7.22
2023-06-19T12:54:18.007Z,6.72
2023-06-19T12:55:20.171Z,7.03
2023-06-19T12:56:22.368Z,7.03
2023-06-19T12:57:25.172Z,7.00
2023-06-19T12:58:27.405Z,7.20
2023-06-19T12:59:30.629Z,7.53
2023-06-19T13:00:32.827Z,7.43
2023-06-19T13:01:35.085Z,7.68
2023-06-19T13:02:38.112Z,7.70
2023-06-19T13:03:40.477Z,7.25
2023-06-19T13:04:42.715Z,8.13
2023-06-19T13:05:44.975Z,7.70
2023-06-19T13:06:47.234Z,7.35
2023-06-19T13:07:49.436Z,6.90
2023-06-19T13:08:51.790Z,10.25
2023-06-19T13:09:53.964Z,7.20
2023-06-19T13:10:56.146Z,7.80
2023-06-19T13:11:58.308Z,7.07
2023-06-19T13:13:00.484Z,7.30
2023-06-19T13:14:02.788Z,7.38
2023-06-19T13:15:06.207Z,8.00
2023-06-19T13:16:08.433Z,7.88
2023-06-19T13:17:10.724Z,7.15
2023-06-19T13:18:13.112Z,7.82
2023-06-19T13:19:16.377Z,7.45
2023-06-19T13:20:18.584Z,7.43
2023-06-19T13:21:21.460Z,7.20
2023-06-19T13:22:25.008Z,7.68
2023-06-19T13:23:27.376Z,7.53
2023-06-19T13:24:29.522Z,7.07
2023-06-19T13:25:33.778Z,7.03
2023-06-19T13:27:37.989Z,7.57
2023-06-19T13:28:40.126Z,7.20
2023-06-19T13:29:42.514Z,8.27
2023-06-19T13:30:44.715Z,7.45
2023-06-19T13:31:47.363Z,7.20
2023-06-19T13:32:49.561Z,7.68
2023-06-19T13:33:51.728Z,7.40
2023-06-19T13:34:54.028Z,7.50
2023-06-19T13:35:56.260Z,7.68
2023-06-19T13:36:58.451Z,8.18
2023-06-19T13:38:01.152Z,7.32
2023-06-19T13:39:04.052Z,7.35
2023-06-19T13:40:07.222Z,7.72
2023-06-19T13:41:09.383Z,7.50
2023-06-19T13:42:12.162Z,7.53
2023-06-19T13:43:15.640Z,7.60
2023-06-19T13:44:17.862Z,8.15
2023-06-19T13:45:19.996Z,8.05
2023-06-19T13:46:25.291Z,7.40
2023-06-19T13:47:28.715Z,7.68
2023-06-19T13:48:30.951Z,8.00
2023-06-19T13:49:33.102Z,7.03
2023-06-19T13:50:35.574Z,7.53